Time;durP1;ratioP1;P1;durP2;ratioP2;P2;SDS_P1;SDS_P2;PMS_P1;PMS_P2;Temp;Humidity;BMP_temperature;BMP_pressure;BME280_temperature;BME280_humidity;BME280_pressure;Samples;Min_cycle;Max_cycle;Signal;HPM_P1;HPM_P2
2022/08/09 00:01:38;;;;;;;2.78;2.58;;;15.90;99.90;;;;;;5043373;28;20041;-74
2022/08/09 00:04:04;;;;;;;5.07;2.40;;;15.80;99.90;;;;;;5052183;28;20041;-73
2022/08/09 00:06:30;;;;;;;2.90;2.47;;;15.80;99.90;;;;;;5047842;28;20082;-73
2022/08/09 00:08:56;;;;;;;3.53;2.50;;;15.80;99.90;;;;;;5055254;28;20643;-74
2022/08/09 00:11:22;;;;;;;2.58;2.38;;;15.80;99.90;;;;;;5060889;28;20068;-74
2022/08/09 00:13:49;;;;;;;4.63;2.28;;;15.80;99.90;;;;;;5050795;28;20033;-73
2022/08/09 00:16:15;;;;;;;4.35;3.03;;;15.80;99.90;;;;;;5056360;28;20065;-74
2022/08/09 00:18:41;;;;;;;2.63;2.42;;;15.80;99.90;;;;;;5067270;28;20062;-73
2022/08/09 00:21:10;;;;;;;5.05;2.85;;;15.80;99.90;;;;;;5039822;28;20045;-74
2022/08/09 00:23:37;;;;;;;3.25;2.90;;;15.80;99.90;;;;;;5065924;28;20051;-73
2022/08/09 00:26:06;;;;;;;6.07;3.08;;;15.70;99.90;;;;;;5051775;28;20037;-74
2022/08/09 00:28:33;;;;;;;3.15;2.95;;;15.70;99.90;;;;;;5017988;28;20040;-72
2022/08/09 00:30:59;;;;;;;3.42;2.97;;;15.60;99.90;;;;;;5055614;28;20151;-73
2022/08/09 00:33:25;;;;;;;3.75;3.45;;;15.70;99.90;;;;;;5060027;28;20132;-74
2022/08/09 00:35:51;;;;;;;3.22;2.97;;;15.50;99.90;;;;;;5061334;28;20040;-73
2022/08/09 00:38:17;;;;;;;3.85;3.30;;;15.50;99.90;;;;;;5056621;28;20566;-73
2022/08/09 00:40:46;;;;;;;3.20;2.80;;;15.40;99.90;;;;;;5044695;28;20033;-74
2022/08/09 00:43:15;;;;;;;5.57;2.90;;;15.40;99.90;;;;;;5048130;28;20492;-75
2022/08/09 00:45:40;;;;;;;4.95;3.95;;;15.30;99.90;;;;;;5060211;28;20055;-73
2022/08/09 00:48:06;;;;;;;2.90;2.70;;;15.30;99.90;;;;;;5059126;28;20037;-76
2022/08/09 00:50:32;;;;;;;3.45;3.15;;;15.20;99.90;;;;;;5057305;28;20028;-73
2022/08/09 00:52:58;;;;;;;5.60;3.10;;;15.90;99.90;;;;;;5060499;28;20104;-74
2022/08/09 00:55:24;;;;;;;4.82;3.40;;;15.10;99.90;;;;;;5059326;28;20033;-73
2022/08/09 00:57:50;;;;;;;3.30;3.10;;;15.80;99.90;;;;;;5059966;28;20395;-73
2022/08/09 01:00:16;;;;;;;3.58;3.20;;;15.00;99.90;;;;;;5052241;28;20464;-73
2022/08/09 01:02:47;;;;;;;4.88;2.65;;;15.00;99.90;;;;;;5042668;28;20066;-74
2022/08/09 01:05:41;;;;;;;4.80;2.70;;;15.70;99.90;;;;;;5025943;28;20044;-74
2022/08/09 01:08:14;;;;;;;2.65;2.47;;;15.00;99.90;;;;;;5060400;28;20036;-73
2022/08/09 01:11:00;;;;;;;4.80;2.40;;;15.00;99.90;;;;;;5037067;28;20036;-73
2022/08/09 01:13:45;;;;;;;2.20;2.10;;;15.10;99.90;;;;;;4957879;28;20055;-75
2022/08/09 01:16:14;;;;;;;2.90;2.70;;;15.10;99.90;;;;;;5048160;28;20678;-74
2022/08/09 01:18:44;;;;;;;3.75;3.20;;;15.10;99.90;;;;;;5056138;28;20040;-76
2022/08/09 01:21:28;;;;;;;2.95;2.72;;;15.10;99.90;;;;;;5034645;28;20099;-73
2022/08/09 01:23:59;;;;;;;;;;;15.10;99.90;;;;;;5034694;28;20052;-74
2022/08/09 01:26:51;;;;;;;3.75;2.63;;;15.00;99.90;;;;;;5057248;28;19960;-73
2022/08/09 01:29:25;;;;;;;5.20;2.72;;;15.00;99.90;;;;;;5043965;28;20097;-74
2022/08/09 01:31:51;;;;;;;3.07;2.53;;;14.90;99.90;;;;;;5050582;28;20303;-74
2022/08/09 01:34:20;;;;;;;3.97;2.83;;;14.90;99.90;;;;;;5057601;28;20051;-74
2022/08/09 01:36:47;;;;;;;4.35;2.70;;;14.90;99.90;;;;;;5059425;28;20155;-73
2022/08/09 01:39:15;;;;;;;3.40;3.17;;;14.90;99.90;;;;;;5058239;28;20041;-74
2022/08/09 01:41:41;;;;;;;4.60;3.13;;;14.90;99.90;;;;;;5059285;28;20115;-73
2022/08/09 01:44:09;;;;;;;4.80;3.47;;;14.00;99.90;;;;;;5050989;28;20048;-73
2022/08/09 01:46:43;;;;;;;4.45;3.75;;;14.80;99.90;;;;;;5064213;28;20047;-74
2022/08/09 01:49:18;;;;;;;3.53;3.22;;;14.80;99.90;;;;;;5056687;28;20040;-74
2022/08/09 01:51:47;;;;;;;3.70;3.40;;;14.40;99.90;;;;;;5054623;28;20036;-73
2022/08/09 01:54:17;;;;;;;3.53;3.08;;;14.70;99.90;;;;;;5056110;28;20079;-73
2022/08/09 01:56:47;;;;;;;3.60;3.30;;;14.70;99.90;;;;;;5062440;28;20044;-73
2022/08/09 01:59:19;;;;;;;5.22;3.67;;;14.70;99.90;;;;;;5063452;28;20043;-74
2022/08/09 02:01:49;;;;;;;3.70;3.35;;;14.60;99.90;;;;;;5038996;28;20053;-74
2022/08/09 02:04:16;;;;;;;3.25;3.05;;;14.60;99.90;;;;;;5062972;28;20045;-73
2022/08/09 02:09:33;;;;;;;4.68;3.67;;;14.60;99.90;;;;;;5044571;28;20053;-73
2022/08/09 02:12:02;;;;;;;3.92;3.42;;;14.60;99.90;;;;;;5067833;28;20051;-73
2022/08/09 02:14:29;;;;;;;4.80;3.55;;;14.50;99.90;;;;;;5064366;28;20047;-74
2022/08/09 02:16:57;;;;;;;3.17;2.90;;;14.50;99.90;;;;;;5065183;28;20040;-73
2022/08/09 02:19:23;;;;;;;3.90;3.53;;;14.50;99.90;;;;;;5045657;28;20724;-72
2022/08/09 02:21:54;;;;;;;4.85;3.33;;;14.50;99.90;;;;;;5060036;28;20484;-73
2022/08/09 02:24:24;;;;;;;6.00;3.28;;;14.50;99.90;;;;;;5064844;28;20053;-73
2022/08/09 02:26:53;;;;;;;3.58;3.28;;;14.50;99.90;;;;;;5065640;28;20446;-73
2022/08/09 02:29:23;;;;;;;6.10;3.80;;;14.40;99.90;;;;;;5061133;28;20045;-74
2022/08/09 02:31:49;;;;;;;4.15;3.83;;;14.60;99.90;;;;;;5064824;28;20048;-74
2022/08/09 02:34:22;;;;;;;6.05;3.88;;;15.40;99.90;;;;;;5064167;28;20079;-74
2022/08/09 02:36:52;;;;;;;4.57;3.92;;;14.30;99.90;;;;;;5054598;28;20044;-74
2022/08/09 02:39:22;;;;;;;9.40;4.05;;;14.30;99.90;;;;;;5046329;28;20066;-74
2022/08/09 02:41:55;;;;;;;4.40;3.55;;;14.90;99.90;;;;;;5053833;28;20407;-76
2022/08/09 02:44:29;;;;;;;4.38;3.97;;;14.20;99.90;;;;;;5059399;28;20059;-73
2022/08/09 02:46:59;;;;;;;4.32;4.00;;;14.20;99.90;;;;;;5054340;28;20044;-74
2022/08/09 02:49:24;;;;;;;3.50;3.30;;;14.20;99.90;;;;;;5062066;28;20033;-73
2022/08/09 02:51:56;;;;;;;3.17;2.95;;;14.20;99.90;;;;;;5056897;28;20492;-73
2022/08/09 02:54:23;;;;;;;3.47;3.20;;;14.20;99.90;;;;;;5063422;28;20123;-73
2022/08/09 02:56:50;;;;;;;3.58;3.28;;;14.20;99.90;;;;;;5056308;28;20033;-73
2022/08/09 02:59:18;;;;;;;3.45;2.92;;;14.20;99.90;;;;;;5067515;28;20429;-74
2022/08/09 03:01:45;;;;;;;3.03;2.75;;;14.70;99.90;;;;;;5052865;28;20037;-74
2022/08/09 03:04:13;;;;;;;5.07;2.67;;;14.20;99.90;;;;;;5058349;28;20045;-74
2022/08/09 03:06:41;;;;;;;2.70;2.60;;;14.20;99.90;;;;;;5060290;28;20049;-74
2022/08/09 03:09:08;;;;;;;3.05;2.75;;;14.20;99.90;;;;;;5041102;28;20037;-74
2022/08/09 03:11:36;;;;;;;3.42;3.20;;;14.20;99.90;;;;;;5061260;28;20121;-74
2022/08/09 03:14:03;;;;;;;3.10;2.90;;;14.10;99.90;;;;;;5054589;28;20062;-75
2022/08/09 03:16:30;;;;;;;2.28;2.17;;;14.00;99.90;;;;;;5027485;28;20519;-74
2022/08/09 03:18:56;;;;;;;2.60;2.38;;;14.00;99.90;;;;;;5056800;28;20516;-73
2022/08/09 03:21:24;;;;;;;2.78;2.53;;;14.00;99.90;;;;;;5037991;28;20041;-73
2022/08/09 03:23:49;;;;;;;3.15;2.65;;;14.00;99.90;;;;;;5046268;28;20056;-75
2022/08/09 03:26:17;;;;;;;2.50;2.30;;;14.00;99.90;;;;;;5037567;28;20044;-73
2022/08/09 03:28:49;;;;;;;2.40;2.13;;;13.90;99.90;;;;;;5063134;28;20047;-73
2022/08/09 03:31:18;;;;;;;2.38;2.28;;;14.00;99.90;;;;;;5036737;28;20087;-74
2022/08/09 03:33:47;;;;;;;3.08;2.17;;;15.00;99.90;;;;;;5046723;28;20085;-73
2022/08/09 03:36:16;;;;;;;2.70;2.03;;;13.90;99.90;;;;;;5040731;28;20048;-74
2022/08/09 03:38:42;;;;;;;2.30;2.10;;;14.50;99.90;;;;;;5061185;28;20040;-75
2022/08/09 03:41:09;;;;;;;1.70;1.60;;;13.70;99.90;;;;;;5062028;28;20043;-73
2022/08/09 03:43:35;;;;;;;2.08;1.98;;;14.70;99.90;;;;;;5059974;28;20053;-73
2022/08/09 03:46:01;;;;;;;2.15;2.05;;;13.90;99.90;;;;;;5062183;28;20039;-74
2022/08/09 03:48:29;;;;;;;1.83;1.70;;;13.90;99.90;;;;;;5059295;28;20512;-76
2022/08/09 03:50:56;;;;;;;1.95;1.83;;;13.90;99.90;;;;;;5062662;28;20025;-75
2022/08/09 03:53:22;;;;;;;2.05;1.95;;;13.90;99.90;;;;;;5040485;28;20048;-74
2022/08/09 03:55:49;;;;;;;1.90;1.80;;;13.90;99.90;;;;;;5046653;28;20484;-74
2022/08/09 03:58:17;;;;;;;2.20;2.10;;;13.90;99.90;;;;;;5058874;28;20392;-74
2022/08/09 04:00:45;;;;;;;2.22;2.13;;;13.80;99.90;;;;;;5038654;28;20110;-75
2022/08/09 04:03:11;;;;;;;2.63;2.42;;;13.80;99.90;;;;;;5058916;28;20123;-74
2022/08/09 04:05:37;;;;;;;2.00;1.90;;;13.80;99.90;;;;;;5059860;28;20033;-74
2022/08/09 04:08:06;;;;;;;1.80;1.70;;;13.80;99.90;;;;;;5039439;28;20373;-74
2022/08/09 04:10:32;;;;;;;2.60;2.13;;;13.80;99.90;;;;;;5057563;28;20119;-74
2022/08/09 04:13:08;;;;;;;2.22;1.90;;;13.70;99.90;;;;;;5040446;28;20043;-73
2022/08/09 04:15:34;;;;;;;2.35;2.00;;;13.70;99.90;;;;;;5035417;28;20069;-73
2022/08/09 04:18:00;;;;;;;1.90;1.80;;;13.80;99.90;;;;;;5054555;28;20306;-73
2022/08/09 04:20:26;;;;;;;2.65;1.83;;;13.60;99.90;;;;;;5049889;28;20482;-73
2022/08/09 04:22:52;;;;;;;3.70;1.90;;;13.60;99.90;;;;;;5058615;28;20048;-74
2022/08/09 04:25:17;;;;;;;1.90;1.80;;;14.70;99.90;;;;;;5034694;28;20075;-74
2022/08/09 04:27:43;;;;;;;1.60;1.35;;;14.20;99.90;;;;;;5058213;28;20528;-74
2022/08/09 04:30:14;;;;;;;1.50;1.40;;;13.70;99.90;;;;;;5058011;28;20097;-74
2022/08/09 04:32:40;;;;;;;2.65;1.83;;;13.70;99.90;;;;;;5058585;28;20052;-74
2022/08/09 04:35:09;;;;;;;1.30;1.20;;;14.20;99.90;;;;;;5053225;28;20045;-73
2022/08/09 04:37:35;;;;;;;1.95;1.48;;;13.70;99.90;;;;;;5056844;28;20484;-74
2022/08/09 04:40:01;;;;;;;1.00;0.90;;;14.50;99.90;;;;;;5061398;28;20032;-75
2022/08/09 04:42:28;;;;;;;1.85;1.75;;;13.70;99.90;;;;;;5042182;28;20064;-75
2022/08/09 04:44:58;;;;;;;1.33;1.20;;;14.80;99.90;;;;;;5052497;28;20550;-74
2022/08/09 04:47:25;;;;;;;1.40;1.30;;;13.60;99.90;;;;;;5060345;28;20627;-76
2022/08/09 04:49:51;;;;;;;1.15;1.05;;;13.70;99.90;;;;;;5057250;28;20072;-74
2022/08/09 04:52:17;;;;;;;2.88;1.02;;;13.70;99.90;;;;;;5062416;28;20040;-75
2022/08/09 04:54:47;;;;;;;1.15;1.00;;;13.70;99.90;;;;;;5059974;28;20094;-74
2022/08/09 04:57:12;;;;;;;0.88;0.88;;;14.50;99.90;;;;;;5054456;28;20075;-74
2022/08/09 04:59:38;;;;;;;1.40;1.30;;;13.70;99.90;;;;;;5063517;28;20430;-74
2022/08/09 05:02:04;;;;;;;1.23;1.23;;;13.90;99.90;;;;;;5050281;28;20036;-74
2022/08/09 05:04:30;;;;;;;1.45;1.02;;;14.20;99.90;;;;;;5054635;28;20037;-76
2022/08/09 05:06:55;;;;;;;0.77;0.77;;;13.70;99.90;;;;;;4704511;28;10000802;-76
2022/08/09 05:09:21;;;;;;;1.50;1.40;;;13.70;99.90;;;;;;5053030;28;20571;-77
2022/08/09 05:11:47;;;;;;;1.00;0.95;;;13.70;99.90;;;;;;5054209;28;20072;-76
2022/08/09 05:14:16;;;;;;;1.38;1.20;;;14.20;99.90;;;;;;5059190;28;20127;-76
2022/08/09 05:16:41;;;;;;;6.50;1.65;;;13.70;99.90;;;;;;5055673;28;20039;-76
2022/08/09 05:19:07;;;;;;;2.60;1.25;;;13.70;99.90;;;;;;5019947;28;20040;-76
2022/08/09 05:21:32;;;;;;;1.30;1.20;;;13.80;99.90;;;;;;5050020;28;20377;-76
2022/08/09 05:23:58;;;;;;;1.55;1.45;;;14.70;99.90;;;;;;5050929;28;20411;-76
2022/08/09 05:26:24;;;;;;;1.65;1.55;;;14.50;99.90;;;;;;5033978;28;20036;-76
2022/08/09 05:28:50;;;;;;;1.33;1.25;;;14.10;99.90;;;;;;5022348;28;20040;-76
2022/08/09 05:31:16;;;;;;;1.80;1.70;;;13.80;99.90;;;;;;5058390;28;20059;-75
2022/08/09 05:33:42;;;;;;;1.55;1.45;;;13.90;99.90;;;;;;5014732;28;20135;-76
2022/08/09 05:36:07;;;;;;;1.55;1.50;;;13.90;99.90;;;;;;5049811;28;20108;-76
2022/08/09 05:38:33;;;;;;;1.30;1.25;;;13.90;99.90;;;;;;5032457;28;20075;-77
2022/08/09 05:40:59;;;;;;;1.70;1.60;;;14.10;99.90;;;;;;5016211;28;20488;-73
2022/08/09 05:43:24;;;;;;;2.00;1.70;;;14.10;99.90;;;;;;5052362;28;20041;-73
2022/08/09 05:45:50;;;;;;;1.83;1.73;;;14.10;99.90;;;;;;5052334;28;20047;-73
2022/08/09 05:48:15;;;;;;;2.55;1.70;;;14.20;99.90;;;;;;5050660;28;20056;-73
2022/08/09 05:50:43;;;;;;;1.67;1.58;;;14.20;99.90;;;;;;5055107;28;20416;-73
2022/08/09 05:53:11;;;;;;;2.40;2.20;;;14.50;99.90;;;;;;5042737;28;20045;-72
2022/08/09 05:55:37;;;;;;;1.80;1.70;;;14.30;99.90;;;;;;5051458;28;20495;-73
2022/08/09 05:58:02;;;;;;;2.22;2.03;;;14.30;99.90;;;;;;5054615;28;20107;-73
2022/08/09 06:00:30;;;;;;;2.30;2.10;;;14.40;99.90;;;;;;5048990;28;20044;-72
2022/08/09 06:02:57;;;;;;;2.28;1.80;;;14.40;99.90;;;;;;5057050;28;20060;-72
2022/08/09 06:05:27;;;;;;;2.35;2.15;;;14.50;99.90;;;;;;5038878;28;20053;-73
2022/08/09 06:07:52;;;;;;;1.88;1.77;;;14.50;99.90;;;;;;5036170;28;20045;-73
2022/08/09 06:10:18;;;;;;;3.22;2.40;;;14.50;99.90;;;;;;5055515;28;20088;-72
2022/08/09 06:12:44;;;;;;;2.53;2.08;;;14.60;99.90;;;;;;5048871;28;20072;-74
2022/08/09 06:15:10;;;;;;;2.17;1.95;;;14.60;99.90;;;;;;5050170;28;20124;-73
2022/08/09 06:17:36;;;;;;;3.45;2.90;;;14.70;99.90;;;;;;5053309;28;20152;-73
2022/08/09 06:20:02;;;;;;;3.75;3.45;;;14.70;99.90;;;;;;5054131;28;20048;-72
2022/08/09 06:22:28;;;;;;;4.45;2.97;;;14.80;99.90;;;;;;5058174;28;20110;-72
2022/08/09 06:24:53;;;;;;;5.53;3.13;;;14.90;99.90;;;;;;5057451;28;20440;-73
2022/08/09 06:27:19;;;;;;;5.45;3.05;;;14.90;99.90;;;;;;5038526;28;20063;-73
2022/08/09 06:29:44;;;;;;;3.63;2.20;;;15.00;99.90;;;;;;5059170;28;20040;-73
2022/08/09 06:32:10;;;;;;;3.03;2.75;;;15.00;99.90;;;;;;5060089;28;20631;-73
2022/08/09 06:34:36;;;;;;;4.50;2.85;;;15.10;99.90;;;;;;5061193;28;20048;-73
2022/08/09 06:37:02;;;;;;;5.80;2.75;;;15.10;99.90;;;;;;5028695;28;20591;-73
2022/08/09 06:39:30;;;;;;;5.13;2.45;;;15.20;99.90;;;;;;5044048;28;20076;-73
2022/08/09 06:41:55;;;;;;;5.97;2.67;;;15.30;99.90;;;;;;5057993;28;20048;-72
2022/08/09 06:44:21;;;;;;;4.90;2.88;;;15.30;99.90;;;;;;5056525;28;20555;-72
2022/08/09 06:46:47;;;;;;;4.13;2.58;;;15.40;99.90;;;;;;5052644;28;20045;-72
2022/08/09 06:49:13;;;;;;;3.58;3.28;;;15.40;99.90;;;;;;5039961;28;20053;-75
2022/08/09 06:51:39;;;;;;;5.68;3.17;;;15.50;99.90;;;;;;5055756;28;20044;-73
2022/08/09 06:54:04;;;;;;;5.97;2.78;;;15.60;99.90;;;;;;5051262;28;20481;-73
2022/08/09 06:56:30;;;;;;;5.18;3.03;;;15.60;99.90;;;;;;5056272;28;20063;-73
2022/08/09 06:58:55;;;;;;;5.32;3.15;;;16.40;99.90;;;;;;5059808;28;20095;-73
2022/08/09 07:01:21;;;;;;;6.00;3.33;;;15.80;99.90;;;;;;5058149;28;20044;-73
2022/08/09 07:03:47;;;;;;;4.07;3.20;;;15.80;99.90;;;;;;5056041;28;20098;-74
2022/08/09 07:06:16;;;;;;;7.78;3.97;;;15.90;99.90;;;;;;5059876;28;20036;-74
2022/08/09 07:08:45;;;;;;;5.22;3.38;;;16.00;99.90;;;;;;5040158;28;20048;-73
2022/08/09 07:11:10;;;;;;;5.40;3.58;;;16.10;99.90;;;;;;5030775;28;20208;-74
2022/08/09 07:13:36;;;;;;;2.88;2.67;;;16.10;99.90;;;;;;5041408;28;20544;-73
2022/08/09 07:16:02;;;;;;;9.48;4.63;;;16.20;99.90;;;;;;5037401;28;20045;-73
2022/08/09 07:18:27;;;;;;;6.40;3.17;;;16.30;99.90;;;;;;5048612;28;20053;-73
2022/08/09 07:20:53;;;;;;;8.23;3.30;;;16.30;99.90;;;;;;5057347;28;20052;-73
2022/08/09 07:23:19;;;;;;;8.48;2.85;;;17.10;99.90;;;;;;5057002;28;20051;-73
2022/08/09 07:25:46;;;;;;;4.10;3.28;;;16.50;99.90;;;;;;5050330;28;20051;-73
2022/08/09 07:28:14;;;;;;;3.42;3.10;;;16.60;99.90;;;;;;5055377;28;20456;-77
2022/08/09 07:30:40;;;;;;;3.35;3.00;;;16.60;99.90;;;;;;5041110;28;20041;-76
2022/08/09 07:33:06;;;;;;;7.05;3.55;;;16.90;99.90;;;;;;5049935;28;20036;-77
2022/08/09 07:35:31;;;;;;;4.47;3.30;;;16.70;99.90;;;;;;5048328;28;20080;-75
2022/08/09 07:37:57;;;;;;;5.50;3.20;;;16.80;99.90;;;;;;5042800;28;20095;-73
2022/08/09 07:40:22;;;;;;;3.85;2.42;;;17.70;99.90;;;;;;5045281;28;20045;-75
2022/08/09 07:42:57;;;;;;;5.00;1.90;;;17.00;99.90;;;;;;5045588;28;20114;-76
2022/08/09 07:45:28;;;;;;;5.70;1.23;;;17.10;99.90;;;;;;5051192;28;20037;-73
2022/08/09 07:47:55;;;;;;;2.30;0.93;;;17.10;99.90;;;;;;5058435;28;20076;-72
2022/08/09 07:50:22;;;;;;;2.13;0.73;;;17.20;99.90;;;;;;5058860;28;20535;-72
2022/08/09 07:52:49;;;;;;;3.30;0.90;;;17.30;99.90;;;;;;5060928;28;20045;-73
2022/08/09 07:55:15;;;;;;;1.50;0.60;;;17.60;99.90;;;;;;5055226;28;20079;-73
2022/08/09 07:57:40;;;;;;;3.10;0.60;;;17.80;99.90;;;;;;5036849;28;20082;-73
2022/08/09 08:00:10;;;;;;;1.67;0.50;;;17.60;99.90;;;;;;5054937;28;20048;-73
2022/08/09 08:02:36;;;;;;;4.82;0.57;;;17.60;99.90;;;;;;5051257;28;20066;-73
2022/08/09 08:05:01;;;;;;;2.78;0.60;;;17.70;99.90;;;;;;5054805;28;20048;-73
2022/08/09 08:07:27;;;;;;;1.58;0.30;;;17.80;99.90;;;;;;5034327;28;20520;-73
2022/08/09 08:09:53;;;;;;;3.92;0.60;;;17.80;99.90;;;;;;5054897;28;20404;-72
2022/08/09 08:12:20;;;;;;;1.70;0.50;;;17.90;99.90;;;;;;5051014;28;20527;-72
2022/08/09 08:14:45;;;;;;;1.35;0.43;;;18.00;99.90;;;;;;5054359;28;20476;-72
2022/08/09 08:17:11;;;;;;;0.95;0.30;;;18.00;99.90;;;;;;5054042;28;20408;-73
2022/08/09 08:19:37;;;;;;;0.77;0.32;;;18.10;99.90;;;;;;5053441;28;20061;-73
2022/08/09 08:22:03;;;;;;;0.82;0.32;;;18.10;99.90;;;;;;5052399;28;20041;-73
2022/08/09 08:24:29;;;;;;;2.55;0.40;;;18.10;99.90;;;;;;5055423;28;20056;-74
2022/08/09 08:26:55;;;;;;;1.77;0.47;;;18.20;99.90;;;;;;5054163;28;20052;-75
2022/08/09 08:29:20;;;;;;;1.33;0.60;;;18.20;99.90;;;;;;5033229;28;20048;-74
2022/08/09 08:31:46;;;;;;;1.45;0.40;;;18.70;99.90;;;;;;5049160;28;20198;-76
2022/08/09 08:34:14;;;;;;;1.38;0.40;;;18.40;99.90;;;;;;5052498;28;20102;-75
2022/08/09 08:36:40;;;;;;;2.70;0.68;;;18.30;99.90;;;;;;5049614;28;20124;-76
2022/08/09 08:39:06;;;;;;;0.95;0.40;;;18.40;99.90;;;;;;5047404;28;20128;-73
2022/08/09 08:41:32;;;;;;;2.03;0.40;;;18.50;99.90;;;;;;5056366;28;20124;-73
2022/08/09 08:43:58;;;;;;;2.80;0.30;;;18.60;99.90;;;;;;5049989;28;20037;-73
2022/08/09 08:46:32;;;;;;;0.75;0.30;;;18.70;99.90;;;;;;5056738;28;20469;-72
2022/08/09 08:48:58;;;;;;;1.88;0.80;;;18.90;99.90;;;;;;4701958;28;10000272;-72
2022/08/09 08:51:24;;;;;;;1.88;0.30;;;19.00;99.90;;;;;;5055591;28;20033;-72
2022/08/09 08:53:53;;;;;;;1.50;0.55;;;19.00;99.90;;;;;;5051680;28;20120;-72
2022/08/09 08:56:19;;;;;;;0.50;0.38;;;18.90;99.90;;;;;;5042600;28;20032;-72
2022/08/09 08:58:46;;;;;;;0.60;0.35;;;19.00;99.90;;;;;;5057100;28;20380;-72
2022/08/09 09:01:15;;;;;;;0.70;0.30;;;19.20;99.90;;;;;;5050996;28;20532;-73
2022/08/09 09:03:45;;;;;;;1.98;0.70;;;18.90;99.90;;;;;;5060365;28;20040;-73
2022/08/09 09:06:16;;;;;;;1.63;0.40;;;18.90;99.90;;;;;;5058383;28;20037;-73
2022/08/09 09:08:45;;;;;;;1.80;0.35;;;18.90;99.90;;;;;;5060376;28;20037;-73
2022/08/09 09:11:11;;;;;;;1.88;0.40;;;18.90;99.90;;;;;;5058861;28;20044;-73
2022/08/09 09:13:42;;;;;;;3.50;0.47;;;19.30;99.90;;;;;;5057165;28;20505;-73
2022/08/09 09:16:08;;;;;;;0.28;0.28;;;19.00;99.90;;;;;;5037221;28;20120;-73
2022/08/09 09:18:34;;;;;;;1.42;0.30;;;19.10;99.90;;;;;;5055846;28;20124;-73
2022/08/09 09:20:59;;;;;;;2.17;0.60;;;19.00;99.90;;;;;;5040124;28;20136;-73
2022/08/09 09:23:46;;;;;;;2.00;0.35;;;19.20;99.90;;;;;;5052002;28;20055;-73
2022/08/09 09:26:15;;;;;;;1.65;0.50;;;19.20;99.90;;;;;;5040191;28;20051;-73
2022/08/09 09:28:50;;;;;;;2.10;0.40;;;19.30;99.90;;;;;;5037422;28;20423;-72
2022/08/09 09:31:18;;;;;;;4.40;0.35;;;19.30;99.90;;;;;;5057521;28;20095;-73
2022/08/09 09:33:47;;;;;;;2.35;0.40;;;19.30;99.90;;;;;;5038318;28;20570;-73
2022/08/09 09:36:16;;;;;;;1.85;0.20;;;19.40;99.90;;;;;;5057681;28;20040;-72
2022/08/09 09:38:43;;;;;;;2.30;0.60;;;19.40;99.90;;;;;;5057298;28;20116;-72
2022/08/09 09:41:33;;;;;;;1.52;0.47;;;19.40;99.90;;;;;;5063401;28;20036;-73
2022/08/09 09:44:03;;;;;;;3.03;0.52;;;19.50;99.90;;;;;;5051400;28;20048;-73
2022/08/09 09:46:34;;;;;;;2.10;0.68;;;20.10;99.90;;;;;;5037002;28;20037;-73
2022/08/09 09:49:04;;;;;;;2.58;0.60;;;19.70;99.90;;;;;;5056748;28;20075;-73
2022/08/09 09:51:32;;;;;;;2.65;0.50;;;19.70;99.90;;;;;;5043784;28;20111;-73
2022/08/09 09:54:09;;;;;;;7.65;0.70;;;19.80;99.90;;;;;;5051275;28;20404;-72
2022/08/09 09:56:44;;;;;;;1.02;0.30;;;19.80;99.90;;;;;;5038239;28;20450;-71
2022/08/09 09:59:12;;;;;;;8.38;0.68;;;19.90;99.90;;;;;;5046368;28;20041;-72
2022/08/09 10:01:41;;;;;;;4.82;0.28;;;19.90;99.90;;;;;;5034959;28;20063;-72
2022/08/09 10:04:17;;;;;;;1.30;0.65;;;20.00;99.90;;;;;;5049584;28;20049;-72
2022/08/09 10:06:45;;;;;;;2.72;0.77;;;20.00;99.90;;;;;;5036138;28;20079;-72
2022/08/09 10:09:21;;;;;;;2.58;0.45;;;20.00;99.90;;;;;;5041579;28;20652;-72
2022/08/09 10:11:47;;;;;;;0.68;0.30;;;20.00;99.90;;;;;;5029623;28;20444;-72
2022/08/09 10:14:24;;;;;;;3.17;0.40;;;20.00;99.90;;;;;;5042952;28;20044;-72
2022/08/09 10:16:50;;;;;;;0.95;0.70;;;20.10;99.90;;;;;;5047764;28;20044;-74
2022/08/09 10:19:16;;;;;;;1.23;0.30;;;20.20;99.90;;;;;;5029712;28;20045;-77
2022/08/09 10:21:49;;;;;;;1.20;0.43;;;21.00;99.90;;;;;;5047972;28;20041;-73
2022/08/09 10:24:18;;;;;;;1.00;0.20;;;20.50;99.90;;;;;;5047837;28;20053;-76
2022/08/09 10:26:45;;;;;;;1.20;0.20;;;20.50;99.90;;;;;;5028318;28;20489;-77
2022/08/09 10:29:15;;;;;;;3.15;0.20;;;20.60;99.90;;;;;;5045894;28;20461;-78
2022/08/09 10:31:41;;;;;;;1.05;0.30;;;20.80;99.90;;;;;;5049499;28;20076;-74
2022/08/09 10:34:11;;;;;;;2.28;0.20;;;20.90;99.90;;;;;;5027889;28;20389;-75
2022/08/09 10:36:37;;;;;;;1.67;0.32;;;21.00;99.90;;;;;;5047802;28;20033;-73
2022/08/09 10:39:03;;;;;;;2.65;0.45;;;21.10;99.90;;;;;;5011760;28;20464;-73
2022/08/09 10:41:29;;;;;;;1.65;0.13;;;21.00;99.90;;;;;;5048531;28;20447;-73
2022/08/09 10:43:56;;;;;;;2.05;0.30;;;21.10;99.90;;;;;;4350347;28;10000722;-73
2022/08/09 10:46:46;;;;;;;5.13;1.00;;;20.60;99.90;;;;;;5032068;28;20049;-73
2022/08/09 10:49:19;;;;;;;2.33;0.40;;;21.10;99.90;;;;;;5046596;28;20562;-73
2022/08/09 10:51:54;;;;;;;1.00;0.32;;;21.30;99.90;;;;;;5028433;28;20535;-73
2022/08/09 10:54:24;;;;;;;1.15;0.85;;;21.40;99.90;;;;;;5032148;28;20068;-73
2022/08/09 10:57:12;;;;;;;1.95;0.25;;;21.50;99.90;;;;;;5050779;28;20049;-74
2022/08/09 10:59:43;;;;;;;1.13;0.43;;;21.50;99.90;;;;;;5033473;28;20041;-73
2022/08/09 11:02:34;;;;;;;2.72;0.20;;;21.60;99.90;;;;;;5050836;28;20107;-73
2022/08/09 11:05:14;;;;;;;0.40;0.20;;;21.70;99.90;;;;;;5051218;28;20490;-73
2022/08/09 11:07:40;;;;;;;2.78;0.35;;;21.80;99.90;;;;;;5050230;28;20045;-74
2022/08/09 11:10:06;;;;;;;0.60;0.20;;;21.80;99.90;;;;;;5054390;28;20417;-73
2022/08/09 11:12:32;;;;;;;1.98;0.17;;;21.80;99.90;;;;;;5054102;28;20044;-75
2022/08/09 11:15:17;;;;;;;1.98;0.40;;;21.90;99.90;;;;;;5052944;28;20045;-77
2022/08/09 11:17:48;;;;;;;5.93;0.20;;;21.90;99.90;;;;;;5034556;28;20132;-78
2022/08/09 11:20:15;;;;;;;1.42;0.22;;;22.10;99.90;;;;;;5038690;28;20081;-74
2022/08/09 11:22:41;;;;;;;0.77;0.20;;;22.30;99.90;;;;;;5052227;28;20081;-75
2022/08/09 11:25:13;;;;;;;2.65;0.28;;;22.40;99.90;;;;;;5054768;28;20084;-74
2022/08/09 11:27:40;;;;;;;3.88;0.80;;;22.40;99.90;;;;;;5055476;28;20495;-75
2022/08/09 11:30:07;;;;;;;4.38;0.43;;;22.60;99.90;;;;;;5036127;28;20053;-74
2022/08/09 11:32:46;;;;;;;0.70;0.10;;;22.60;99.90;;;;;;5057726;28;20049;-75
2022/08/09 11:35:24;;;;;;;0.75;0.10;;;22.60;99.90;;;;;;5055012;28;20401;-75
2022/08/09 11:38:15;;;;;;;1.92;0.10;;;22.70;99.90;;;;;;5056891;28;20056;-75
2022/08/09 11:40:47;;;;;;;0.52;0.30;;;22.80;99.90;;;;;;5045657;28;20048;-76
2022/08/09 11:43:36;;;;;;;0.40;0.17;;;22.80;99.90;;;;;;5041473;28;20037;-74
2022/08/09 11:46:04;;;;;;;0.93;0.30;;;23.00;99.90;;;;;;5053938;28;20076;-73
2022/08/09 11:48:48;;;;;;;1.27;0.17;;;23.00;99.90;;;;;;5064087;28;20044;-76
2022/08/09 11:51:13;;;;;;;4.40;0.25;;;23.30;99.90;;;;;;5059569;28;20115;-73
2022/08/09 11:53:40;;;;;;;1.85;0.52;;;23.20;99.90;;;;;;5037034;28;20127;-73
2022/08/09 11:56:15;;;;;;;0.60;0.20;;;23.30;99.90;;;;;;5064797;28;20040;-74
2022/08/09 11:58:52;;;;;;;0.47;0.20;;;23.30;99.90;;;;;;5039477;28;20551;-72
2022/08/09 12:01:30;;;;;;;0.52;0.10;;;23.30;99.90;;;;;;5058915;28;20049;-73
2022/08/09 12:04:02;;;;;;;0.30;0.10;;;23.30;99.90;;;;;;5045312;28;20500;-74
2022/08/09 12:06:29;;;;;;;2.17;0.20;;;23.40;99.90;;;;;;5065985;28;20036;-76
2022/08/09 12:08:55;;;;;;;0.40;0.10;;;23.60;99.90;;;;;;5053322;28;20411;-72
2022/08/09 12:11:24;;;;;;;0.45;0.15;;;23.70;99.90;;;;;;5054072;28;20040;-75
2022/08/09 12:13:52;;;;;;;1.10;0.10;;;23.90;99.90;;;;;;5056135;28;20043;-74
2022/08/09 12:16:22;;;;;;;3.03;0.20;;;24.00;99.90;;;;;;5058655;28;20094;-77
2022/08/09 12:18:49;;;;;;;1.08;0.10;;;24.10;99.90;;;;;;5064257;28;20929;-77
2022/08/09 12:21:33;;;;;;;0.45;0.10;;;24.30;99.90;;;;;;5060053;28;20033;-79
2022/08/09 12:24:01;;;;;;;1.30;0.20;;;24.30;99.90;;;;;;5058129;28;20040;-79
2022/08/09 12:26:42;;;;;;;0.20;0.10;;;24.20;99.90;;;;;;5054372;28;20084;-76
2022/08/09 12:29:14;;;;;;;1.38;0.20;;;24.30;99.90;;;;;;5044806;28;20049;-76
2022/08/09 12:31:41;;;;;;;3.60;0.20;;;24.20;99.90;;;;;;5041917;28;20404;-74
2022/08/09 12:34:06;;;;;;;1.10;0.20;;;24.30;99.90;;;;;;5054299;28;20041;-75
2022/08/09 12:36:32;;;;;;;0.63;0.38;;;24.20;99.90;;;;;;5053893;28;20428;-75
2022/08/09 12:38:59;;;;;;;1.27;0.30;;;24.20;99.90;;;;;;5047655;28;20044;-74
2022/08/09 12:41:32;;;;;;;7.78;0.70;;;24.20;99.90;;;;;;5059482;28;20473;-73
2022/08/09 12:43:58;;;;;;;;;;;24.30;99.90;;;;;;5049242;28;20071;-74
2022/08/09 12:46:25;;;;;;;0.57;0.20;;;24.40;99.90;;;;;;5060351;28;19920;-76
2022/08/09 12:48:54;;;;;;;1.42;0.28;;;24.60;99.90;;;;;;5062330;28;20071;-74
2022/08/09 12:51:21;;;;;;;1.52;0.30;;;24.70;99.90;;;;;;5059666;28;20059;-73
2022/08/09 12:54:00;;;;;;;1.10;0.47;;;24.80;99.90;;;;;;5051197;28;20037;-76
2022/08/09 12:56:26;;;;;;;1.95;0.63;;;24.70;99.90;;;;;;5051435;28;20033;-75
2022/08/09 12:59:09;;;;;;;6.25;0.50;;;24.80;99.90;;;;;;5036667;28;20119;-72